Airfield :
LOGIN :

Register | Disclaimer

   EN    FR    IT 

 










Legend :    VFR   Marginal VFR   IFR   Intensive IFR   Very Intensive IFR
Visi :
Ceiling :
>= 8 km
>= 3000ft
5 to 8 km
1000 to 3000 ft
1500m to 5 km
500 to 1000 ft
800 to 1500m
200 to 500 ft
< 800m
< 200 ft
Symbols :   Thunderstorms  Fog  Heavy snow  Heavy precipitations  Wind > 20 kt
SIGMETs :     Misc.  Thunderstorms  Icing  Turbulence  Mountain Waves  Volcanic Ashes







- Airport Elevation : 289 ft


LIRG - Guidonia

CURRENT METAR :
  • 171655Z 34014KT 9999 FEW015 SCT035 09/03 Q1014 RMK BKN MON NE CLD CIME NC VIS MIN 9999 BLU

EXPIRED METARs :
  • 171555Z 17006KT 100V210 9999 FEW015 BKN035 08/06 Q1013 RMK OVC MON NE CLD CIME NC VIS MIN 9999 BLU
  • 171455Z 01003KT 330V100 9999 FEW020 BKN030 08/07 Q1013 RMK BKN MON NE CLD CIME VIS MIN 9999 BLU

TAF TAF LIRG
Valid from the 17 at 15:00 until the 18 at 00:00 UTC


171400Z 1715/1724 33008KT 9999 SCT020 SCT030
No reported NOTAMs for that airfield.
2 SIGMETs reported for the Roma FIR (LIRR) :
 
Embedded thunderstorms
LIRR SIGMET 14 VALID 171635/171835 LIIB
LIRR ROMA FIR EMBD TS FCST WI N4042 E01312 - N4020 E01112 - N3854 E01501 - N3832 E01313 - N3725 E01452 - N3658 E01828 - N3851 E01857 - N3858 E01634 - N4037 E01524 - N4042 E01312 TOP FL390 MOV SE NC=
Severe mountain waves
LIRR SIGMET 13 VALID 171635/171835 LIIB
LIRR ROMA FIR SEV MTW FCST WI N4205 E00946 - N4120 E00951 - N4115 E00904 - N3858 E00822 - N3837 E01330 - N4104 E01210 - N4205 E00946 FL020/130 STNR NC=



MET'MAP, your aeronautical weather chart ! - Copyright ORBIFLY December 2007 - Disclaimer

ORBIFLY MET'MAP TEAM :

Programming & Development : Alexandra Zaïnal
Concept & Development : Baudouin d'Aumeries
Co-Development & Prog : Marc-Olivier Méhu
Technical & hardware support : Manuel Goepfert

Contact : metmap@orbifly.com




SOURCES & CREDITS :

   NOAA